createdAt,value
2022-11-25T00:01:52.393Z,21.98
2022-11-25T00:06:53.592Z,26.08
2022-11-25T00:11:54.310Z,24.85
2022-11-25T00:16:55.144Z,19.80
2022-11-25T00:21:55.978Z,34.53
2022-11-25T00:26:56.962Z,21.65
2022-11-25T00:31:57.783Z,25.12
2022-11-25T00:36:58.660Z,31.98
2022-11-25T00:42:17.986Z,37.70
2022-11-25T00:47:20.668Z,27.75
2022-11-25T00:52:25.079Z,54.90
2022-11-25T00:57:26.030Z,26.37
2022-11-25T01:02:27.216Z,35.17
2022-11-25T01:07:28.629Z,34.50
2022-11-25T01:12:29.738Z,23.42
2022-11-25T01:17:31.653Z,18.73
2022-11-25T01:22:32.421Z,22.23
2022-11-25T01:27:33.170Z,27.65
2022-11-25T01:32:33.978Z,24.27
2022-11-25T01:37:34.810Z,22.30
2022-11-25T01:42:47.556Z,18.08
2022-11-25T01:47:50.441Z,16.67
2022-11-25T01:52:54.583Z,24.85
2022-11-25T01:58:30.943Z,22.08
2022-11-25T02:03:38.578Z,18.10
2022-11-25T02:08:42.683Z,21.45
2022-11-25T02:13:46.933Z,22.27
2022-11-25T02:18:49.695Z,15.23
2022-11-25T02:23:59.709Z,15.07
2022-11-25T02:29:00.915Z,22.50
2022-11-25T02:34:01.732Z,24.42
2022-11-25T02:39:02.820Z,17.75
2022-11-25T02:44:06.917Z,28.02
2022-11-25T02:49:09.573Z,18.70
2022-11-25T02:54:13.106Z,25.70
2022-11-25T02:59:13.872Z,18.58
2022-11-25T03:04:14.794Z,21.73
2022-11-25T03:09:15.929Z,16.60
2022-11-25T03:14:17.241Z,20.10
2022-11-25T03:19:17.968Z,20.83
2022-11-25T03:24:18.725Z,18.08
2022-11-25T03:29:21.574Z,16.37
2022-11-25T03:34:22.499Z,16.42
2022-11-25T03:39:23.827Z,23.85
2022-11-25T03:44:24.994Z,17.25
2022-11-25T03:49:26.125Z,19.67
2022-11-25T03:54:28.041Z,19.27
2022-11-25T03:59:46.275Z,17.80
2022-11-25T04:04:48.045Z,17.52
2022-11-25T04:09:49.927Z,16.95
2022-11-25T04:14:53.237Z,17.85
2022-11-25T04:19:54.161Z,16.77
2022-11-25T04:24:55.078Z,22.77
2022-11-25T04:29:58.737Z,23.40
2022-11-25T04:34:59.648Z,22.40
2022-11-25T04:40:01.071Z,42.20
2022-11-25T04:45:22.898Z,37.53
2022-11-25T04:50:25.416Z,38.58
2022-11-25T04:55:31.636Z,25.42
2022-11-25T05:00:33.785Z,29.42
2022-11-25T05:05:37.671Z,24.70
2022-11-25T05:10:38.616Z,27.58
2022-11-25T05:15:39.904Z,29.40
2022-11-25T05:20:41.731Z,39.58
2022-11-25T05:25:42.668Z,33.72
2022-11-25T05:31:03.123Z,29.70
2022-11-25T05:36:05.011Z,37.22
2022-11-25T05:41:14.947Z,33.28
2022-11-25T05:46:18.238Z,42.20
2022-11-25T05:51:24.380Z,36.53
2022-11-25T05:56:25.329Z,37.45
2022-11-25T06:01:40.836Z,39.90
2022-11-25T06:06:41.833Z,38.40
2022-11-25T06:11:43.165Z,40.85
2022-11-25T06:16:43.894Z,35.65
2022-11-25T06:21:55.323Z,34.47
2022-11-25T06:26:56.536Z,35.70
2022-11-25T06:31:57.611Z,38.33
2022-11-25T06:37:15.232Z,37.15
2022-11-25T06:42:16.292Z,43.35
2022-11-25T06:47:17.150Z,42.30
2022-11-25T06:52:17.937Z,37.03
2022-11-25T06:57:19.260Z,35.97
2022-11-25T07:02:20.182Z,41.40
2022-11-25T07:07:21.025Z,38.60
2022-11-25T07:12:23.821Z,43.78
2022-11-25T07:17:27.609Z,32.33
2022-11-25T07:22:28.369Z,31.05
2022-11-25T07:27:29.142Z,38.60
2022-11-25T07:32:32.736Z,33.30
2022-11-25T07:37:33.461Z,33.58
2022-11-25T07:42:34.566Z,30.25
2022-11-25T07:47:36.288Z,35.30
2022-11-25T07:52:38.812Z,39.40
2022-11-25T07:57:39.544Z,37.50
2022-11-25T08:02:40.404Z,39.38
2022-11-25T08:07:41.325Z,44.88
2022-11-25T08:12:42.359Z,50.85
2022-11-25T08:17:43.106Z,43.05
2022-11-25T08:22:43.953Z,41.08
2022-11-25T08:27:44.747Z,47.33
2022-11-25T08:32:45.577Z,40.25
2022-11-25T08:37:46.437Z,29.27
2022-11-25T08:42:47.596Z,34.03
2022-11-25T08:47:48.340Z,19.50
2022-11-25T08:52:49.192Z,20.08
2022-11-25T08:57:49.918Z,20.92
2022-11-25T09:02:50.791Z,19.17
2022-11-25T09:07:51.709Z,27.90
2022-11-25T09:12:52.750Z,18.70
2022-11-25T09:18:05.018Z,16.77
2022-11-25T09:23:07.889Z,18.17
2022-11-25T09:28:08.998Z,15.18
2022-11-25T09:33:09.815Z,14.93
2022-11-25T09:38:10.909Z,18.60
2022-11-25T09:44:50.039Z,12.77
2022-11-25T09:50:38.426Z,15.63
2022-11-25T09:55:43.995Z,12.52
2022-11-25T10:00:47.124Z,16.90
2022-11-25T10:06:34.185Z,11.27
2022-11-25T10:12:39.201Z,20.45
2022-11-25T10:17:53.429Z,9.13
2022-11-25T10:23:02.784Z,12.90
2022-11-25T10:28:15.952Z,14.60
2022-11-25T10:33:53.515Z,14.68
2022-11-25T10:39:10.673Z,15.23
2022-11-25T10:44:28.142Z,14.93
2022-11-25T10:52:11.528Z,11.38
2022-11-25T10:57:18.413Z,11.52
2022-11-25T11:02:36.453Z,12.65
2022-11-25T11:07:40.974Z,12.93
2022-11-25T11:13:05.984Z,8.07
2022-11-25T11:20:12.264Z,11.57
2022-11-25T11:25:33.010Z,7.95
2022-11-25T11:30:33.941Z,9.00
2022-11-25T11:38:19.665Z,12.73
2022-11-25T11:45:04.741Z,15.00
2022-11-25T11:50:26.706Z,20.65
2022-11-25T11:56:33.548Z,10.30
2022-11-25T12:03:21.368Z,11.02
2022-11-25T12:08:31.314Z,9.10
2022-11-25T12:17:22.788Z,11.77
2022-11-25T12:22:33.443Z,10.93
2022-11-25T12:27:40.595Z,16.25
2022-11-25T12:35:59.793Z,16.12
2022-11-25T12:42:11.297Z,12.68
2022-11-25T12:47:12.457Z,13.77
2022-11-25T12:55:45.792Z,11.15
2022-11-25T13:04:13.538Z,10.93
2022-11-25T13:09:59.025Z,11.05
2022-11-25T13:15:45.313Z,12.37
2022-11-25T13:20:49.762Z,12.40
2022-11-25T13:25:52.272Z,11.73
2022-11-25T13:30:53.316Z,13.15
2022-11-25T13:35:56.030Z,13.23
2022-11-25T13:40:59.051Z,15.43
2022-11-25T13:46:01.344Z,8.52
2022-11-25T13:51:20.124Z,16.87
2022-11-25T13:56:33.482Z,19.25
2022-11-25T14:01:34.972Z,11.55
2022-11-25T14:07:20.405Z,18.45
2022-11-25T14:15:09.912Z,20.20
2022-11-25T14:20:42.490Z,14.70
2022-11-25T14:25:51.495Z,17.60
2022-11-25T14:30:58.703Z,16.45
2022-11-25T14:36:11.156Z,15.88
2022-11-25T14:41:48.681Z,15.10
2022-11-25T14:46:54.390Z,20.02
2022-11-25T14:51:55.146Z,22.37
2022-11-25T14:56:56.207Z,28.40
2022-11-25T15:01:57.350Z,25.75
2022-11-25T15:07:01.688Z,26.70
2022-11-25T15:12:12.033Z,17.67
2022-11-25T15:17:31.622Z,30.05
2022-11-25T15:22:32.727Z,21.08
2022-11-25T15:27:33.604Z,14.70
2022-11-25T15:32:37.624Z,15.93
2022-11-25T15:37:38.795Z,21.75
2022-11-25T15:42:41.786Z,14.35
2022-11-25T15:47:44.993Z,9.50
2022-11-25T15:57:50.992Z,13.50
2022-11-25T16:02:54.684Z,16.77
2022-11-25T16:07:58.603Z,12.20
2022-11-25T16:13:36.771Z,19.02
2022-11-25T16:19:26.470Z,9.05
2022-11-25T16:24:40.779Z,9.82
2022-11-25T16:30:10.974Z,14.43
2022-11-25T16:35:18.537Z,11.55
2022-11-25T16:40:19.420Z,13.40
2022-11-25T16:45:23.099Z,14.20
2022-11-25T16:50:23.958Z,16.23
2022-11-25T16:55:25.053Z,18.08
2022-11-25T17:00:25.783Z,17.08
2022-11-25T17:05:26.954Z,12.52
2022-11-25T17:10:27.853Z,16.30
2022-11-25T17:15:34.789Z,50.15
2022-11-25T17:20:35.761Z,40.00
2022-11-25T17:25:37.264Z,37.78
2022-11-25T17:30:38.603Z,11.82
2022-11-25T17:35:39.349Z,19.92
2022-11-25T17:40:42.771Z,80.47
2022-11-25T17:50:46.819Z,58.72
2022-11-25T17:55:47.593Z,30.37
2022-11-25T18:00:48.752Z,19.75
2022-11-25T18:05:50.060Z,14.95
2022-11-25T18:10:51.100Z,24.77
2022-11-25T18:15:52.198Z,27.40
2022-11-25T18:20:55.103Z,14.73
2022-11-25T18:25:59.363Z,16.10
2022-11-25T18:31:04.130Z,24.70
2022-11-25T18:36:06.051Z,34.33
2022-11-25T18:41:17.881Z,22.92
2022-11-25T18:46:18.686Z,24.23
2022-11-25T18:51:19.952Z,25.70
2022-11-25T18:56:20.682Z,24.02
2022-11-25T19:01:23.122Z,15.60
2022-11-25T19:06:27.268Z,12.43
2022-11-25T19:11:32.274Z,16.37
2022-11-25T19:16:33.184Z,22.05
2022-11-25T19:21:34.271Z,18.85
2022-11-25T19:26:41.057Z,29.05
2022-11-25T19:31:41.887Z,22.08
2022-11-25T19:36:42.797Z,13.27
2022-11-25T19:41:44.519Z,26.92
2022-11-25T19:47:13.800Z,24.27
2022-11-25T19:52:19.980Z,25.95
2022-11-25T19:57:23.068Z,27.23
2022-11-25T20:02:26.042Z,24.35
2022-11-25T20:07:29.259Z,19.50
2022-11-25T20:17:32.954Z,27.30
2022-11-25T20:22:36.936Z,27.48
2022-11-25T20:27:37.720Z,26.58
2022-11-25T20:32:38.614Z,24.73
2022-11-25T20:37:50.766Z,19.50
2022-11-25T20:42:52.518Z,24.95
2022-11-25T20:47:53.272Z,27.55
2022-11-25T20:52:54.064Z,33.35
2022-11-25T20:57:54.969Z,116.37
2022-11-25T21:02:56.485Z,104.90
2022-11-25T21:07:57.414Z,197.25
2022-11-25T21:12:58.491Z,111.95
2022-11-25T21:17:59.230Z,49.10
2022-11-25T21:23:06.982Z,109.07
2022-11-25T21:28:16.358Z,145.00
2022-11-25T21:33:17.423Z,125.03
2022-11-25T21:38:22.551Z,62.53
2022-11-25T21:43:27.676Z,40.72
2022-11-25T21:48:30.218Z,28.80
2022-11-25T21:53:37.011Z,28.10
2022-11-25T21:58:39.712Z,31.23
2022-11-25T22:03:40.444Z,33.73
2022-11-25T22:08:41.260Z,26.45
2022-11-25T22:13:43.700Z,29.85
2022-11-25T22:18:44.671Z,32.37
2022-11-25T22:23:45.506Z,24.02
2022-11-25T22:28:50.836Z,27.92
2022-11-25T22:33:51.786Z,22.02
2022-11-25T22:38:52.538Z,28.87
2022-11-25T22:43:53.411Z,33.78
2022-11-25T22:48:54.461Z,27.30
2022-11-25T22:53:55.178Z,29.02
2022-11-25T22:58:59.451Z,26.20
2022-11-25T23:04:00.185Z,27.75
2022-11-25T23:09:02.230Z,34.45
2022-11-25T23:14:03.084Z,28.60
2022-11-25T23:19:04.215Z,26.62
2022-11-25T23:24:11.864Z,26.75
2022-11-25T23:29:12.633Z,21.20
2022-11-25T23:34:13.912Z,25.83
2022-11-25T23:39:18.872Z,29.83
2022-11-25T23:44:30.663Z,34.28
2022-11-25T23:49:38.228Z,20.77
2022-11-25T23:54:41.965Z,24.15
2022-11-25T23:59:43.427Z,19.95
